Aviation Digital Data Service (ADDS)

Output produced by METARs form (2054 UTC 29 May 2017)
found at http://www.aviationweather.gov/adds/metars/
 
VVDN 292030Z 23002KT 7000 FEW013 SCT060 26/24 Q1008 NOSIG
TAF VVDN 291700Z 2918/3018 25004KT 7000 FEW013 SCT060 
     TEMPO 3008/3013 4000 TSRA SCT013 FEW015CB BKN050
       
VVNB 292030Z 07004KT 4500 BR NSC 25/24 Q1008 NOSIG
TAF VVNB 291700Z 2918/3018 15006KT 8000 FEW030 
     BECMG 2921/2922 3500 BR NSC 
     BECMG 3001/3002 8000 NSW
       
VVTS 292030Z VRB01KT 8000 FEW015 BKN040 26/25 Q1008 NOSIG
TAF VVTS 291700Z 2918/3024 VRB05KT 9999 SCT015 SCT040 
     BECMG 2921/2922 5000 BR 
     BECMG 3000/3001 24010KT 9999 NSW 
     TEMPO 3005/3010 3000 TSRA BKN013 SCT015CB